PATK/TKA METAR and TAF weather

Enter ICAO airport designator
Station Type Date Time Source
PATK METAR 2020/04/04 04:53 UTC NOAA

PATK 040453Z AUTO 00000KT 10SM CLR 01/M03 A3012 RMK AO2 SLP205 T00111033 TSNO


Station Type Date Time Source
PATK Decoded METAR 2020/04/04 04:53 UTC NOAA

TALKEETNA AIRPORT, AK, United States (PATK) 62-19N 150-06W 109M
Apr 04, 2020 - 12:53 AM EDT / 2020.04.04 0453 UTC
Wind: Calm:0
Visibility: 10 mile(s):0
Sky conditions: clear
Temperature: 34.0 F (1.1 C)
Dew Point: 26.1 F (-3.3 C)
Relative Humidity: 72%
Pressure (altimeter): 30.12 in. Hg (1019 hPa)
ob: PATK 040453Z AUTO 00000KT 10SM CLR 01/M03 A3012 RMK AO2 SLP205 T00111033 TSNO
cycle: 5

Station Type Date Time Source
PATK TAF 2020/04/04 02:21 UTC NOAA

TAF
AMD PATK 040219Z 0402/0424 VRB03KT P6SM FEW150
FM041000 VRB03KT P6SM VCSH BKN025 OVC040
FM041500 18005KT 6SM -SN BR SCT005 BKN012 OVC025

Example: see airport list